createdAt,value
2022-12-08T00:02:52.406Z,11.68
2022-12-08T00:08:13.206Z,10.90
2022-12-08T00:13:15.033Z,10.97
2022-12-08T00:18:16.793Z,11.55
2022-12-08T00:23:18.547Z,11.82
2022-12-08T00:28:20.468Z,11.07
2022-12-08T00:33:22.257Z,10.95
2022-12-08T00:38:24.019Z,11.70
2022-12-08T00:43:26.800Z,11.30
2022-12-08T00:48:28.645Z,11.35
2022-12-08T00:53:31.355Z,11.07
2022-12-08T00:58:33.114Z,12.07
2022-12-08T01:03:35.008Z,10.73
2022-12-08T01:08:37.759Z,11.52
2022-12-08T01:13:39.783Z,11.43
2022-12-08T01:18:41.676Z,11.00
2022-12-08T01:23:43.548Z,11.52
2022-12-08T01:28:46.310Z,10.15
2022-12-08T01:33:48.949Z,10.75
2022-12-08T01:38:51.918Z,10.57
2022-12-08T01:44:01.222Z,10.98
2022-12-08T01:49:23.307Z,11.70
2022-12-08T01:54:29.161Z,11.68
2022-12-08T01:59:35.493Z,10.88
2022-12-08T02:04:37.723Z,11.30
2022-12-08T02:09:41.676Z,11.55
2022-12-08T02:14:43.596Z,10.82
2022-12-08T02:19:57.509Z,11.43
2022-12-08T02:25:24.892Z,10.07
2022-12-08T02:31:01.419Z,10.48
2022-12-08T02:36:12.471Z,10.95
2022-12-08T02:41:36.551Z,10.57
2022-12-08T02:46:49.617Z,10.48
2022-12-08T02:51:51.379Z,11.70
2022-12-08T02:57:35.240Z,12.05
2022-12-08T03:02:52.321Z,12.10
2022-12-08T03:07:59.490Z,11.35
2022-12-08T03:13:21.549Z,11.95
2022-12-08T03:18:28.714Z,10.93
2022-12-08T03:23:31.333Z,12.63
2022-12-08T03:28:34.608Z,11.68
2022-12-08T03:33:40.252Z,12.98
2022-12-08T03:38:44.892Z,13.85
2022-12-08T03:43:55.066Z,13.10
2022-12-08T03:48:57.315Z,13.40
2022-12-08T03:53:59.079Z,14.07
2022-12-08T03:59:01.424Z,14.48
2022-12-08T04:04:03.528Z,12.52
2022-12-08T04:09:05.370Z,12.90
2022-12-08T04:14:07.146Z,13.90
2022-12-08T04:19:08.984Z,13.40
2022-12-08T04:24:10.806Z,15.20
2022-12-08T04:29:12.670Z,12.60
2022-12-08T04:34:14.457Z,13.75
2022-12-08T04:39:16.248Z,14.25
2022-12-08T04:44:18.084Z,13.30
2022-12-08T04:49:19.901Z,14.13
2022-12-08T04:54:21.735Z,13.60
2022-12-08T04:59:23.546Z,14.18
2022-12-08T05:04:25.445Z,14.43
2022-12-08T05:09:28.206Z,14.82
2022-12-08T05:14:30.018Z,14.20
2022-12-08T05:19:31.796Z,14.98
2022-12-08T05:24:33.637Z,14.77
2022-12-08T05:29:35.517Z,14.82
2022-12-08T05:34:37.282Z,15.65
2022-12-08T05:39:39.134Z,16.98
2022-12-08T05:44:40.912Z,16.20
2022-12-08T05:49:42.680Z,15.27
2022-12-08T05:54:44.541Z,15.10
2022-12-08T05:59:46.308Z,16.02
2022-12-08T06:04:48.090Z,15.60
2022-12-08T06:09:49.900Z,15.03
2022-12-08T06:14:51.787Z,16.10
2022-12-08T06:19:53.533Z,14.85
2022-12-08T06:24:55.278Z,14.93
2022-12-08T06:29:57.639Z,17.00
2022-12-08T06:34:59.421Z,14.68
2022-12-08T06:40:01.434Z,15.60
2022-12-08T06:45:03.812Z,14.18
2022-12-08T06:50:06.935Z,15.10
2022-12-08T06:55:09.321Z,15.80
2022-12-08T07:00:11.846Z,15.55
2022-12-08T07:05:13.665Z,15.57
2022-12-08T07:10:15.479Z,15.35
2022-12-08T07:15:17.355Z,14.40
2022-12-08T07:20:19.175Z,15.73
2022-12-08T07:25:21.421Z,15.25
2022-12-08T07:30:23.240Z,14.80
2022-12-08T07:35:25.052Z,14.70
2022-12-08T07:40:26.826Z,13.82
2022-12-08T07:45:31.698Z,14.05
2022-12-08T07:50:34.105Z,14.18
2022-12-08T07:55:43.012Z,15.18
2022-12-08T08:00:44.846Z,17.30
2022-12-08T08:05:49.237Z,14.40
2022-12-08T08:10:51.023Z,14.25
2022-12-08T08:15:52.902Z,13.05
2022-12-08T08:20:54.688Z,12.93
2022-12-08T08:25:59.685Z,13.60
2022-12-08T08:31:02.597Z,13.57
2022-12-08T08:36:09.180Z,14.05
2022-12-08T08:41:12.111Z,13.52
2022-12-08T08:46:13.981Z,13.25
2022-12-08T08:51:15.833Z,12.35
2022-12-08T08:56:19.495Z,12.05
2022-12-08T09:01:27.808Z,11.68
2022-12-08T09:06:29.720Z,12.82
2022-12-08T09:11:32.848Z,12.80
2022-12-08T09:16:40.366Z,11.13
2022-12-08T09:21:43.779Z,12.43
2022-12-08T09:26:46.859Z,11.65
2022-12-08T09:31:48.757Z,10.85
2022-12-08T09:36:50.632Z,10.32
2022-12-08T09:41:59.492Z,11.23
2022-12-08T09:47:06.496Z,11.02
2022-12-08T09:52:22.670Z,11.32
2022-12-08T09:57:25.941Z,10.50
2022-12-08T10:02:29.701Z,10.52
2022-12-08T10:08:14.938Z,11.38
2022-12-08T10:13:34.217Z,12.10
2022-12-08T10:18:37.940Z,11.63
2022-12-08T10:23:44.768Z,11.55
2022-12-08T10:28:46.817Z,10.50
2022-12-08T10:34:01.737Z,10.82
2022-12-08T10:39:03.667Z,11.18
2022-12-08T10:44:05.504Z,10.23
2022-12-08T10:49:07.260Z,11.50
2022-12-08T10:54:33.772Z,11.30
2022-12-08T10:59:35.545Z,10.70
2022-12-08T11:04:41.141Z,11.45
2022-12-08T11:09:49.106Z,9.68
2022-12-08T11:15:03.160Z,12.40
2022-12-08T11:20:21.934Z,11.63
2022-12-08T11:25:26.373Z,10.52
2022-12-08T11:30:36.873Z,12.48
2022-12-08T11:35:42.507Z,12.68
2022-12-08T11:40:44.817Z,12.57
2022-12-08T11:46:09.319Z,12.15
2022-12-08T11:51:24.507Z,11.93
2022-12-08T11:56:35.011Z,12.27
2022-12-08T12:01:42.388Z,12.38
2022-12-08T12:07:15.950Z,11.48
2022-12-08T12:12:39.976Z,12.15
2022-12-08T12:17:49.261Z,12.10
2022-12-08T12:23:06.567Z,12.85
2022-12-08T12:28:11.994Z,10.57
2022-12-08T12:33:17.689Z,11.68
2022-12-08T12:39:03.455Z,11.82
2022-12-08T12:44:14.242Z,12.02
2022-12-08T12:49:37.885Z,11.48
2022-12-08T12:54:43.654Z,11.05
2022-12-08T12:59:54.711Z,10.57
2022-12-08T13:05:26.956Z,11.93
2022-12-08T13:10:35.312Z,11.43
2022-12-08T13:15:57.121Z,10.18
2022-12-08T13:21:31.883Z,9.50
2022-12-08T13:26:46.644Z,10.15
2022-12-08T13:31:57.047Z,9.90
2022-12-08T13:37:10.919Z,9.38
2022-12-08T13:42:12.744Z,10.05
2022-12-08T13:47:34.676Z,9.73
2022-12-08T13:53:49.660Z,9.85
2022-12-08T13:58:36.486Z,8.63
2022-12-08T14:04:12.854Z,9.00
2022-12-08T14:09:16.154Z,9.07
2022-12-08T14:14:45.799Z,9.52
2022-12-08T14:19:53.392Z,9.80
2022-12-08T14:24:55.207Z,9.45
2022-12-08T14:30:26.085Z,9.63
2022-12-08T14:35:32.269Z,9.55
2022-12-08T14:40:36.085Z,9.95
2022-12-08T14:45:40.994Z,8.48
2022-12-08T14:50:58.361Z,8.82
2022-12-08T14:56:00.337Z,8.88
2022-12-08T15:01:04.809Z,8.85
2022-12-08T15:06:08.293Z,9.43
2022-12-08T15:11:34.136Z,8.45
2022-12-08T15:16:42.902Z,9.57
2022-12-08T15:21:46.476Z,8.95
2022-12-08T15:26:50.479Z,12.13
2022-12-08T15:31:55.749Z,10.82
2022-12-08T15:36:57.541Z,10.23
2022-12-08T15:42:00.249Z,9.95
2022-12-08T15:47:02.302Z,10.13
2022-12-08T15:52:11.618Z,13.13
2022-12-08T15:57:53.564Z,12.48
2022-12-08T16:03:18.455Z,12.60
2022-12-08T16:08:44.676Z,11.35
2022-12-08T16:14:15.100Z,10.27
2022-12-08T16:19:14.611Z,10.73
2022-12-08T16:24:16.409Z,12.38
2022-12-08T16:29:20.752Z,10.20
2022-12-08T16:34:22.542Z,10.48
2022-12-08T16:39:24.371Z,11.48
2022-12-08T16:44:26.176Z,11.05
2022-12-08T16:49:27.927Z,11.48
2022-12-08T16:54:29.961Z,10.32
2022-12-08T16:59:31.831Z,11.50
2022-12-08T17:04:33.980Z,11.43
2022-12-08T17:09:35.816Z,11.68
2022-12-08T17:14:37.625Z,11.48
2022-12-08T17:19:39.402Z,11.52
2022-12-08T17:24:41.181Z,10.88
2022-12-08T17:29:43.020Z,11.10
2022-12-08T17:34:44.811Z,11.27
2022-12-08T17:39:46.664Z,12.23
2022-12-08T17:44:48.500Z,11.20
2022-12-08T17:49:50.401Z,11.38
2022-12-08T17:54:52.221Z,11.98
2022-12-08T17:59:54.113Z,12.38
2022-12-08T18:04:55.976Z,11.10
2022-12-08T18:09:57.752Z,11.05
2022-12-08T18:14:59.676Z,11.95
2022-12-08T18:20:01.446Z,11.18
2022-12-08T18:25:03.999Z,11.30
2022-12-08T18:30:13.627Z,11.77
2022-12-08T18:35:15.660Z,10.65
2022-12-08T18:40:18.508Z,10.57
2022-12-08T18:45:22.649Z,10.35
2022-12-08T18:50:24.717Z,10.02
2022-12-08T18:55:26.499Z,10.65
2022-12-08T19:00:28.347Z,10.35
2022-12-08T19:05:30.143Z,10.73
2022-12-08T19:10:32.259Z,11.38
2022-12-08T19:15:34.821Z,13.43
2022-12-08T19:20:36.825Z,13.57
2022-12-08T19:25:38.706Z,13.35
2022-12-08T19:30:40.543Z,13.27
2022-12-08T19:35:46.204Z,13.68
2022-12-08T19:41:09.284Z,12.90
2022-12-08T19:46:11.172Z,13.60
2022-12-08T19:51:13.116Z,12.45
2022-12-08T19:56:14.964Z,14.05
2022-12-08T20:01:16.920Z,13.00
2022-12-08T20:06:18.813Z,12.85
2022-12-08T20:11:20.969Z,13.00
2022-12-08T20:16:24.110Z,13.43
2022-12-08T20:21:26.259Z,13.85
2022-12-08T20:26:28.107Z,14.00
2022-12-08T20:31:31.367Z,15.43
2022-12-08T20:36:33.291Z,13.43
2022-12-08T20:41:39.082Z,13.07
2022-12-08T20:46:46.278Z,12.73
2022-12-08T20:51:51.000Z,14.70
2022-12-08T20:56:53.142Z,14.95
2022-12-08T21:01:55.095Z,14.48
2022-12-08T21:06:57.261Z,13.55
2022-12-08T21:11:59.212Z,13.90
2022-12-08T21:17:01.077Z,14.80
2022-12-08T21:22:03.189Z,15.15
2022-12-08T21:27:05.211Z,15.32
2022-12-08T21:32:08.914Z,16.95
2022-12-08T21:37:10.903Z,15.73
2022-12-08T21:42:34.260Z,15.20
2022-12-08T21:47:36.606Z,15.40
2022-12-08T21:52:44.142Z,14.60
2022-12-08T21:57:46.331Z,15.90
2022-12-08T22:02:48.323Z,16.52
2022-12-08T22:07:50.472Z,15.27
2022-12-08T22:12:52.319Z,16.55
2022-12-08T22:17:54.299Z,16.52
2022-12-08T22:22:56.386Z,17.35
2022-12-08T22:27:58.230Z,15.38
2022-12-08T22:33:00.079Z,16.40
2022-12-08T22:38:02.083Z,16.40
2022-12-08T22:43:03.906Z,17.58
2022-12-08T22:48:05.864Z,16.92
2022-12-08T22:53:08.130Z,18.10
2022-12-08T22:58:13.495Z,18.98
2022-12-08T23:03:15.496Z,17.63
2022-12-08T23:08:18.231Z,17.33
2022-12-08T23:13:21.968Z,17.73
2022-12-08T23:18:23.840Z,18.10
2022-12-08T23:23:25.864Z,18.30
2022-12-08T23:28:27.990Z,17.90
2022-12-08T23:33:30.311Z,17.13
2022-12-08T23:38:32.628Z,17.48
2022-12-08T23:43:35.196Z,18.27
2022-12-08T23:48:37.047Z,18.48
2022-12-08T23:53:39.149Z,19.05
2022-12-08T23:58:42.731Z,17.35
